sensor_id;sensor_type;location;lat;lon;timestamp;P1;durP1;ratioP1;P2;durP2;ratioP2
21878;SDS011;27908;42.708;23.278;2023-03-20T00:02:09;26.77;;;11.07;;
21878;SDS011;27908;42.708;23.278;2023-03-20T00:04:42;27.05;;;11.63;;
21878;SDS011;27908;42.708;23.278;2023-03-20T00:07:07;26.40;;;11.97;;
21878;SDS011;27908;42.708;23.278;2023-03-20T00:09:36;25.40;;;11.73;;
21878;SDS011;27908;42.708;23.278;2023-03-20T00:12:02;27.23;;;11.48;;
21878;SDS011;27908;42.708;23.278;2023-03-20T00:14:28;23.03;;;11.30;;
21878;SDS011;27908;42.708;23.278;2023-03-20T00:16:53;24.47;;;11.63;;
21878;SDS011;27908;42.708;23.278;2023-03-20T00:19:20;28.70;;;11.10;;
21878;SDS011;27908;42.708;23.278;2023-03-20T00:21:50;23.45;;;10.98;;
21878;SDS011;27908;42.708;23.278;2023-03-20T00:24:17;29.17;;;11.57;;
21878;SDS011;27908;42.708;23.278;2023-03-20T00:26:43;24.65;;;11.93;;
21878;SDS011;27908;42.708;23.278;2023-03-20T00:29:23;24.08;;;11.50;;
21878;SDS011;27908;42.708;23.278;2023-03-20T00:31:51;22.75;;;11.50;;
21878;SDS011;27908;42.708;23.278;2023-03-20T00:34:18;25.75;;;11.80;;
21878;SDS011;27908;42.708;23.278;2023-03-20T00:36:47;23.40;;;11.20;;
21878;SDS011;27908;42.708;23.278;2023-03-20T00:39:13;24.45;;;11.18;;
21878;SDS011;27908;42.708;23.278;2023-03-20T00:44:19;27.52;;;12.25;;
21878;SDS011;27908;42.708;23.278;2023-03-20T00:46:52;26.85;;;12.20;;
21878;SDS011;27908;42.708;23.278;2023-03-20T00:49:21;23.33;;;10.88;;
21878;SDS011;27908;42.708;23.278;2023-03-20T00:51:49;26.20;;;12.23;;
21878;SDS011;27908;42.708;23.278;2023-03-20T00:54:15;28.43;;;12.23;;
21878;SDS011;27908;42.708;23.278;2023-03-20T00:56:42;25.80;;;11.05;;
21878;SDS011;27908;42.708;23.278;2023-03-20T00:59:19;24.77;;;11.02;;
21878;SDS011;27908;42.708;23.278;2023-03-20T01:01:47;25.20;;;11.20;;
21878;SDS011;27908;42.708;23.278;2023-03-20T01:04:13;25.70;;;11.77;;
21878;SDS011;27908;42.708;23.278;2023-03-20T01:06:40;23.85;;;10.93;;
21878;SDS011;27908;42.708;23.278;2023-03-20T01:09:06;28.63;;;10.77;;
21878;SDS011;27908;42.708;23.278;2023-03-20T01:11:32;22.60;;;9.93;;
21878;SDS011;27908;42.708;23.278;2023-03-20T01:13:58;26.73;;;11.25;;
21878;SDS011;27908;42.708;23.278;2023-03-20T01:16:25;30.05;;;11.75;;
21878;SDS011;27908;42.708;23.278;2023-03-20T01:18:51;27.02;;;11.10;;
21878;SDS011;27908;42.708;23.278;2023-03-20T01:21:17;28.30;;;12.93;;
21878;SDS011;27908;42.708;23.278;2023-03-20T01:23:44;31.25;;;13.48;;
21878;SDS011;27908;42.708;23.278;2023-03-20T01:28:59;38.80;;;19.23;;
21878;SDS011;27908;42.708;23.278;2023-03-20T01:31:25;32.90;;;14.93;;
21878;SDS011;27908;42.708;23.278;2023-03-20T01:33:50;35.07;;;15.40;;
21878;SDS011;27908;42.708;23.278;2023-03-20T01:36:17;32.00;;;13.77;;
21878;SDS011;27908;42.708;23.278;2023-03-20T01:38:48;26.87;;;13.17;;
21878;SDS011;27908;42.708;23.278;2023-03-20T01:41:19;23.63;;;11.02;;
21878;SDS011;27908;42.708;23.278;2023-03-20T01:43:46;23.73;;;11.05;;
21878;SDS011;27908;42.708;23.278;2023-03-20T01:46:28;25.10;;;10.13;;
21878;SDS011;27908;42.708;23.278;2023-03-20T01:49:00;23.63;;;10.63;;
21878;SDS011;27908;42.708;23.278;2023-03-20T01:51:32;25.95;;;11.10;;
21878;SDS011;27908;42.708;23.278;2023-03-20T01:56:25;25.27;;;10.40;;
21878;SDS011;27908;42.708;23.278;2023-03-20T01:58:56;24.48;;;11.07;;
21878;SDS011;27908;42.708;23.278;2023-03-20T02:01:27;27.00;;;11.52;;
21878;SDS011;27908;42.708;23.278;2023-03-20T02:03:54;25.02;;;10.90;;
21878;SDS011;27908;42.708;23.278;2023-03-20T02:06:20;22.40;;;10.77;;
21878;SDS011;27908;42.708;23.278;2023-03-20T02:08:49;21.08;;;10.35;;
21878;SDS011;27908;42.708;23.278;2023-03-20T02:11:17;21.70;;;10.60;;
21878;SDS011;27908;42.708;23.278;2023-03-20T02:13:46;22.98;;;10.20;;
21878;SDS011;27908;42.708;23.278;2023-03-20T02:16:12;21.27;;;10.15;;
21878;SDS011;27908;42.708;23.278;2023-03-20T02:18:40;23.92;;;10.70;;
21878;SDS011;27908;42.708;23.278;2023-03-20T02:32:58;20.15;;;9.82;;
21878;SDS011;27908;42.708;23.278;2023-03-20T02:41:15;20.08;;;9.30;;
21878;SDS011;27908;42.708;23.278;2023-03-20T02:44:10;21.10;;;9.60;;
21878;SDS011;27908;42.708;23.278;2023-03-20T02:46:55;19.80;;;8.63;;
21878;SDS011;27908;42.708;23.278;2023-03-20T02:57:25;19.23;;;8.82;;
21878;SDS011;27908;42.708;23.278;2023-03-20T03:00:08;19.00;;;8.43;;
21878;SDS011;27908;42.708;23.278;2023-03-20T03:02:54;24.27;;;10.90;;
21878;SDS011;27908;42.708;23.278;2023-03-20T03:05:41;22.33;;;10.30;;
21878;SDS011;27908;42.708;23.278;2023-03-20T03:08:11;26.10;;;11.27;;
21878;SDS011;27908;42.708;23.278;2023-03-20T03:10:44;24.75;;;10.57;;
21878;SDS011;27908;42.708;23.278;2023-03-20T03:13:18;27.80;;;11.07;;
21878;SDS011;27908;42.708;23.278;2023-03-20T03:15:48;20.10;;;9.38;;
21878;SDS011;27908;42.708;23.278;2023-03-20T03:18:18;21.47;;;9.93;;
21878;SDS011;27908;42.708;23.278;2023-03-20T03:20:45;20.10;;;9.38;;
21878;SDS011;27908;42.708;23.278;2023-03-20T03:25:55;23.77;;;11.02;;
21878;SDS011;27908;42.708;23.278;2023-03-20T03:28:30;23.02;;;11.25;;
21878;SDS011;27908;42.708;23.278;2023-03-20T03:31:02;20.83;;;10.27;;
21878;SDS011;27908;42.708;23.278;2023-03-20T03:33:31;20.60;;;9.98;;
21878;SDS011;27908;42.708;23.278;2023-03-20T03:41:17;27.58;;;10.45;;
21878;SDS011;27908;42.708;23.278;2023-03-20T03:46:31;24.40;;;9.40;;
21878;SDS011;27908;42.708;23.278;2023-03-20T03:49:05;26.95;;;10.57;;
21878;SDS011;27908;42.708;23.278;2023-03-20T03:51:37;23.20;;;9.75;;
21878;SDS011;27908;42.708;23.278;2023-03-20T03:54:10;23.23;;;10.05;;
21878;SDS011;27908;42.708;23.278;2023-03-20T03:56:41;21.80;;;9.80;;
21878;SDS011;27908;42.708;23.278;2023-03-20T03:59:12;23.63;;;11.50;;
21878;SDS011;27908;42.708;23.278;2023-03-20T04:01:49;22.40;;;11.10;;
21878;SDS011;27908;42.708;23.278;2023-03-20T04:04:16;24.88;;;11.13;;
21878;SDS011;27908;42.708;23.278;2023-03-20T04:06:43;23.08;;;11.10;;
21878;SDS011;27908;42.708;23.278;2023-03-20T04:09:08;25.20;;;10.80;;
21878;SDS011;27908;42.708;23.278;2023-03-20T04:11:34;19.90;;;9.80;;
21878;SDS011;27908;42.708;23.278;2023-03-20T04:13:59;22.00;;;10.02;;
21878;SDS011;27908;42.708;23.278;2023-03-20T04:16:25;20.47;;;10.03;;
21878;SDS011;27908;42.708;23.278;2023-03-20T04:18:51;22.27;;;10.45;;
21878;SDS011;27908;42.708;23.278;2023-03-20T04:21:17;19.93;;;10.00;;
21878;SDS011;27908;42.708;23.278;2023-03-20T04:23:43;22.13;;;10.15;;
21878;SDS011;27908;42.708;23.278;2023-03-20T04:26:08;23.10;;;10.20;;
21878;SDS011;27908;42.708;23.278;2023-03-20T04:28:34;24.23;;;10.02;;
21878;SDS011;27908;42.708;23.278;2023-03-20T04:31:00;22.60;;;10.30;;
21878;SDS011;27908;42.708;23.278;2023-03-20T04:33:26;23.48;;;9.63;;
21878;SDS011;27908;42.708;23.278;2023-03-20T04:35:53;22.17;;;10.55;;
21878;SDS011;27908;42.708;23.278;2023-03-20T04:38:19;29.37;;;12.17;;
21878;SDS011;27908;42.708;23.278;2023-03-20T04:40:44;26.20;;;13.07;;
21878;SDS011;27908;42.708;23.278;2023-03-20T04:43:11;28.48;;;13.60;;
21878;SDS011;27908;42.708;23.278;2023-03-20T04:45:37;28.43;;;12.43;;
21878;SDS011;27908;42.708;23.278;2023-03-20T04:48:03;27.98;;;12.82;;
21878;SDS011;27908;42.708;23.278;2023-03-20T04:50:29;27.57;;;12.37;;
21878;SDS011;27908;42.708;23.278;2023-03-20T04:52:54;24.92;;;11.48;;
21878;SDS011;27908;42.708;23.278;2023-03-20T04:55:19;27.03;;;11.93;;
21878;SDS011;27908;42.708;23.278;2023-03-20T04:57:46;24.45;;;11.25;;
21878;SDS011;27908;42.708;23.278;2023-03-20T05:00:12;25.27;;;11.47;;
21878;SDS011;27908;42.708;23.278;2023-03-20T05:02:38;24.13;;;11.73;;
21878;SDS011;27908;42.708;23.278;2023-03-20T05:05:04;24.23;;;10.80;;
21878;SDS011;27908;42.708;23.278;2023-03-20T05:07:29;26.30;;;12.77;;
21878;SDS011;27908;42.708;23.278;2023-03-20T05:09:55;28.13;;;13.80;;
21878;SDS011;27908;42.708;23.278;2023-03-20T05:12:20;23.67;;;12.90;;
21878;SDS011;27908;42.708;23.278;2023-03-20T05:14:46;30.30;;;14.00;;
21878;SDS011;27908;42.708;23.278;2023-03-20T05:17:12;27.27;;;13.23;;
21878;SDS011;27908;42.708;23.278;2023-03-20T05:19:37;20.23;;;11.37;;
21878;SDS011;27908;42.708;23.278;2023-03-20T05:22:03;29.50;;;11.00;;
21878;SDS011;27908;42.708;23.278;2023-03-20T05:24:29;25.40;;;12.63;;
21878;SDS011;27908;42.708;23.278;2023-03-20T05:26:55;30.15;;;11.70;;
21878;SDS011;27908;42.708;23.278;2023-03-20T05:29:21;22.07;;;11.20;;
21878;SDS011;27908;42.708;23.278;2023-03-20T05:31:46;24.57;;;11.83;;
21878;SDS011;27908;42.708;23.278;2023-03-20T05:34:11;26.75;;;11.15;;
21878;SDS011;27908;42.708;23.278;2023-03-20T05:36:37;27.40;;;11.87;;
21878;SDS011;27908;42.708;23.278;2023-03-20T05:39:03;24.47;;;12.07;;
21878;SDS011;27908;42.708;23.278;2023-03-20T05:41:28;24.98;;;11.88;;
21878;SDS011;27908;42.708;23.278;2023-03-20T05:43:53;31.83;;;13.33;;
21878;SDS011;27908;42.708;23.278;2023-03-20T05:46:19;24.57;;;12.13;;
21878;SDS011;27908;42.708;23.278;2023-03-20T05:48:45;29.45;;;12.23;;
21878;SDS011;27908;42.708;23.278;2023-03-20T05:51:10;25.73;;;11.77;;
21878;SDS011;27908;42.708;23.278;2023-03-20T05:53:36;24.20;;;11.43;;
21878;SDS011;27908;42.708;23.278;2023-03-20T05:56:01;23.43;;;11.23;;
21878;SDS011;27908;42.708;23.278;2023-03-20T05:58:27;25.25;;;11.70;;
21878;SDS011;27908;42.708;23.278;2023-03-20T06:00:52;29.27;;;13.03;;
21878;SDS011;27908;42.708;23.278;2023-03-20T06:03:18;34.97;;;15.00;;
21878;SDS011;27908;42.708;23.278;2023-03-20T06:05:43;39.85;;;16.75;;
21878;SDS011;27908;42.708;23.278;2023-03-20T06:08:09;36.57;;;17.10;;
21878;SDS011;27908;42.708;23.278;2023-03-20T06:10:34;41.10;;;17.03;;
21878;SDS011;27908;42.708;23.278;2023-03-20T06:13:00;40.75;;;19.38;;
21878;SDS011;27908;42.708;23.278;2023-03-20T06:15:28;39.40;;;18.27;;
21878;SDS011;27908;42.708;23.278;2023-03-20T06:17:54;38.83;;;15.75;;
21878;SDS011;27908;42.708;23.278;2023-03-20T06:20:20;35.53;;;14.60;;
21878;SDS011;27908;42.708;23.278;2023-03-20T06:22:46;24.77;;;10.68;;
21878;SDS011;27908;42.708;23.278;2023-03-20T06:25:11;28.80;;;13.43;;
21878;SDS011;27908;42.708;23.278;2023-03-20T06:27:37;25.47;;;13.30;;
21878;SDS011;27908;42.708;23.278;2023-03-20T06:30:03;24.60;;;11.60;;
21878;SDS011;27908;42.708;23.278;2023-03-20T06:32:30;23.38;;;10.90;;
21878;SDS011;27908;42.708;23.278;2023-03-20T06:34:56;24.90;;;11.63;;
21878;SDS011;27908;42.708;23.278;2023-03-20T06:37:21;27.03;;;11.63;;
21878;SDS011;27908;42.708;23.278;2023-03-20T06:39:47;22.07;;;10.53;;
21878;SDS011;27908;42.708;23.278;2023-03-20T06:42:12;30.20;;;12.77;;
21878;SDS011;27908;42.708;23.278;2023-03-20T06:44:38;25.03;;;12.83;;
21878;SDS011;27908;42.708;23.278;2023-03-20T06:47:04;29.85;;;13.63;;
21878;SDS011;27908;42.708;23.278;2023-03-20T06:49:29;34.20;;;13.33;;
21878;SDS011;27908;42.708;23.278;2023-03-20T06:51:55;31.10;;;13.85;;
21878;SDS011;27908;42.708;23.278;2023-03-20T06:54:20;20.63;;;11.57;;
21878;SDS011;27908;42.708;23.278;2023-03-20T06:56:46;25.90;;;12.13;;
21878;SDS011;27908;42.708;23.278;2023-03-20T06:59:11;27.95;;;12.48;;
21878;SDS011;27908;42.708;23.278;2023-03-20T07:01:38;29.75;;;13.30;;
21878;SDS011;27908;42.708;23.278;2023-03-20T07:04:03;26.77;;;12.13;;
21878;SDS011;27908;42.708;23.278;2023-03-20T07:06:29;28.83;;;12.33;;
21878;SDS011;27908;42.708;23.278;2023-03-20T07:08:54;24.00;;;11.87;;
21878;SDS011;27908;42.708;23.278;2023-03-20T07:11:19;24.73;;;12.23;;
21878;SDS011;27908;42.708;23.278;2023-03-20T07:13:45;29.30;;;12.17;;
21878;SDS011;27908;42.708;23.278;2023-03-20T07:16:10;26.50;;;12.87;;
21878;SDS011;27908;42.708;23.278;2023-03-20T07:18:36;26.17;;;11.95;;
21878;SDS011;27908;42.708;23.278;2023-03-20T07:21:02;28.33;;;12.70;;
21878;SDS011;27908;42.708;23.278;2023-03-20T07:23:29;32.53;;;13.55;;
21878;SDS011;27908;42.708;23.278;2023-03-20T07:25:55;24.70;;;12.77;;
21878;SDS011;27908;42.708;23.278;2023-03-20T07:28:22;25.85;;;12.30;;
21878;SDS011;27908;42.708;23.278;2023-03-20T07:30:47;23.43;;;12.10;;
21878;SDS011;27908;42.708;23.278;2023-03-20T07:33:13;27.70;;;11.47;;
21878;SDS011;27908;42.708;23.278;2023-03-20T07:35:39;22.97;;;10.63;;
21878;SDS011;27908;42.708;23.278;2023-03-20T07:38:04;19.10;;;9.10;;
21878;SDS011;27908;42.708;23.278;2023-03-20T07:40:31;21.42;;;10.35;;
21878;SDS011;27908;42.708;23.278;2023-03-20T07:42:57;23.98;;;10.77;;
21878;SDS011;27908;42.708;23.278;2023-03-20T07:45:22;22.77;;;11.70;;
21878;SDS011;27908;42.708;23.278;2023-03-20T07:47:48;24.95;;;12.95;;
21878;SDS011;27908;42.708;23.278;2023-03-20T07:50:14;27.15;;;13.05;;
21878;SDS011;27908;42.708;23.278;2023-03-20T07:52:40;23.83;;;11.67;;
21878;SDS011;27908;42.708;23.278;2023-03-20T07:55:09;27.45;;;12.77;;
21878;SDS011;27908;42.708;23.278;2023-03-20T07:57:35;26.90;;;12.35;;
21878;SDS011;27908;42.708;23.278;2023-03-20T08:00:00;22.70;;;11.73;;
21878;SDS011;27908;42.708;23.278;2023-03-20T08:02:26;32.00;;;12.03;;
21878;SDS011;27908;42.708;23.278;2023-03-20T08:04:51;23.90;;;12.33;;
21878;SDS011;27908;42.708;23.278;2023-03-20T08:07:16;20.92;;;11.25;;
21878;SDS011;27908;42.708;23.278;2023-03-20T08:09:42;27.97;;;11.93;;
21878;SDS011;27908;42.708;23.278;2023-03-20T08:12:07;21.87;;;12.17;;
21878;SDS011;27908;42.708;23.278;2023-03-20T08:14:33;25.17;;;13.00;;
21878;SDS011;27908;42.708;23.278;2023-03-20T08:16:58;22.75;;;12.70;;
21878;SDS011;27908;42.708;23.278;2023-03-20T08:19:24;26.77;;;12.53;;
21878;SDS011;27908;42.708;23.278;2023-03-20T08:21:50;18.58;;;10.50;;
21878;SDS011;27908;42.708;23.278;2023-03-20T08:24:16;22.95;;;11.00;;
21878;SDS011;27908;42.708;23.278;2023-03-20T08:26:41;19.43;;;10.50;;
21878;SDS011;27908;42.708;23.278;2023-03-20T08:29:08;22.05;;;10.00;;
21878;SDS011;27908;42.708;23.278;2023-03-20T08:31:33;22.07;;;9.63;;
21878;SDS011;27908;42.708;23.278;2023-03-20T08:33:59;21.65;;;9.85;;
21878;SDS011;27908;42.708;23.278;2023-03-20T08:36:25;17.10;;;8.77;;
21878;SDS011;27908;42.708;23.278;2023-03-20T08:38:50;21.63;;;9.40;;
21878;SDS011;27908;42.708;23.278;2023-03-20T08:41:16;20.75;;;9.60;;
21878;SDS011;27908;42.708;23.278;2023-03-20T08:43:42;19.07;;;9.47;;
21878;SDS011;27908;42.708;23.278;2023-03-20T08:46:08;19.70;;;9.07;;
21878;SDS011;27908;42.708;23.278;2023-03-20T08:48:33;19.03;;;8.87;;
21878;SDS011;27908;42.708;23.278;2023-03-20T08:51:00;18.58;;;9.02;;
21878;SDS011;27908;42.708;23.278;2023-03-20T08:53:25;19.38;;;9.18;;
21878;SDS011;27908;42.708;23.278;2023-03-20T08:55:51;21.37;;;9.23;;
21878;SDS011;27908;42.708;23.278;2023-03-20T08:58:20;22.20;;;10.35;;
21878;SDS011;27908;42.708;23.278;2023-03-20T09:00:46;20.05;;;9.65;;
21878;SDS011;27908;42.708;23.278;2023-03-20T09:03:15;20.47;;;9.63;;
21878;SDS011;27908;42.708;23.278;2023-03-20T09:05:43;21.58;;;10.13;;
21878;SDS011;27908;42.708;23.278;2023-03-20T09:08:13;21.10;;;10.13;;
21878;SDS011;27908;42.708;23.278;2023-03-20T09:10:39;22.50;;;10.60;;
21878;SDS011;27908;42.708;23.278;2023-03-20T09:13:05;21.95;;;10.70;;
21878;SDS011;27908;42.708;23.278;2023-03-20T09:15:30;23.83;;;11.35;;
21878;SDS011;27908;42.708;23.278;2023-03-20T09:17:56;19.97;;;10.60;;
21878;SDS011;27908;42.708;23.278;2023-03-20T09:20:22;20.63;;;10.67;;
21878;SDS011;27908;42.708;23.278;2023-03-20T09:22:47;20.45;;;9.40;;
21878;SDS011;27908;42.708;23.278;2023-03-20T09:25:13;27.70;;;11.23;;
21878;SDS011;27908;42.708;23.278;2023-03-20T09:27:38;20.93;;;9.77;;
21878;SDS011;27908;42.708;23.278;2023-03-20T09:30:04;24.25;;;11.43;;
21878;SDS011;27908;42.708;23.278;2023-03-20T09:32:31;24.20;;;11.20;;
21878;SDS011;27908;42.708;23.278;2023-03-20T09:34:57;26.98;;;11.98;;
21878;SDS011;27908;42.708;23.278;2023-03-20T09:37:23;21.92;;;10.73;;
21878;SDS011;27908;42.708;23.278;2023-03-20T09:39:50;30.27;;;11.27;;
21878;SDS011;27908;42.708;23.278;2023-03-20T09:50:27;28.48;;;11.55;;
21878;SDS011;27908;42.708;23.278;2023-03-20T09:53:02;27.35;;;12.13;;
21878;SDS011;27908;42.708;23.278;2023-03-20T09:55:36;23.27;;;11.10;;
21878;SDS011;27908;42.708;23.278;2023-03-20T10:01:00;24.90;;;11.23;;
21878;SDS011;27908;42.708;23.278;2023-03-20T10:06:21;22.98;;;11.80;;
21878;SDS011;27908;42.708;23.278;2023-03-20T10:08:46;23.63;;;10.50;;
21878;SDS011;27908;42.708;23.278;2023-03-20T10:19:22;22.02;;;10.90;;
21878;SDS011;27908;42.708;23.278;2023-03-20T10:22:01;22.55;;;11.45;;
21878;SDS011;27908;42.708;23.278;2023-03-20T10:24:39;23.23;;;11.63;;
21878;SDS011;27908;42.708;23.278;2023-03-20T10:27:25;22.92;;;11.18;;
21878;SDS011;27908;42.708;23.278;2023-03-20T10:30:07;19.50;;;10.90;;
21878;SDS011;27908;42.708;23.278;2023-03-20T10:32:40;23.55;;;11.40;;
21878;SDS011;27908;42.708;23.278;2023-03-20T10:40:55;22.58;;;10.80;;
21878;SDS011;27908;42.708;23.278;2023-03-20T10:43:32;24.83;;;11.45;;
21878;SDS011;27908;42.708;23.278;2023-03-20T10:48:29;23.20;;;10.75;;
21878;SDS011;27908;42.708;23.278;2023-03-20T10:51:00;23.03;;;10.57;;
21878;SDS011;27908;42.708;23.278;2023-03-20T10:56:07;21.08;;;10.77;;
21878;SDS011;27908;42.708;23.278;2023-03-20T10:58:39;21.00;;;10.05;;
21878;SDS011;27908;42.708;23.278;2023-03-20T11:01:08;23.02;;;10.82;;
21878;SDS011;27908;42.708;23.278;2023-03-20T11:03:33;22.77;;;11.20;;
21878;SDS011;27908;42.708;23.278;2023-03-20T11:06:22;24.55;;;10.32;;
21878;SDS011;27908;42.708;23.278;2023-03-20T11:08:56;20.63;;;9.80;;
21878;SDS011;27908;42.708;23.278;2023-03-20T11:11:35;18.08;;;9.38;;
21878;SDS011;27908;42.708;23.278;2023-03-20T11:14:17;24.67;;;9.88;;
21878;SDS011;27908;42.708;23.278;2023-03-20T11:16:53;19.33;;;8.77;;
21878;SDS011;27908;42.708;23.278;2023-03-20T11:19:21;18.05;;;9.57;;
21878;SDS011;27908;42.708;23.278;2023-03-20T11:21:49;25.60;;;9.60;;
21878;SDS011;27908;42.708;23.278;2023-03-20T11:24:25;16.75;;;10.07;;
21878;SDS011;27908;42.708;23.278;2023-03-20T11:29:52;18.60;;;9.32;;
21878;SDS011;27908;42.708;23.278;2023-03-20T11:35:15;17.33;;;8.07;;
21878;SDS011;27908;42.708;23.278;2023-03-20T11:37:51;17.27;;;8.30;;
21878;SDS011;27908;42.708;23.278;2023-03-20T11:40:23;17.55;;;7.95;;
21878;SDS011;27908;42.708;23.278;2023-03-20T11:42:57;16.00;;;7.82;;
21878;SDS011;27908;42.708;23.278;2023-03-20T11:45:34;18.02;;;7.82;;
21878;SDS011;27908;42.708;23.278;2023-03-20T11:48:15;14.97;;;8.47;;
21878;SDS011;27908;42.708;23.278;2023-03-20T11:54:13;12.63;;;6.30;;
21878;SDS011;27908;42.708;23.278;2023-03-20T11:56:42;12.40;;;6.32;;
21878;SDS011;27908;42.708;23.278;2023-03-20T11:59:19;14.85;;;6.68;;
21878;SDS011;27908;42.708;23.278;2023-03-20T12:01:47;25.50;;;7.17;;
21878;SDS011;27908;42.708;23.278;2023-03-20T12:04:18;17.00;;;5.20;;
21878;SDS011;27908;42.708;23.278;2023-03-20T12:07:02;14.93;;;6.15;;
21878;SDS011;27908;42.708;23.278;2023-03-20T12:12:07;11.00;;;4.40;;
21878;SDS011;27908;42.708;23.278;2023-03-20T12:14:53;11.73;;;4.43;;
21878;SDS011;27908;42.708;23.278;2023-03-20T12:23:01;11.00;;;4.20;;
21878;SDS011;27908;42.708;23.278;2023-03-20T12:25:34;9.48;;;3.90;;
21878;SDS011;27908;42.708;23.278;2023-03-20T12:31:22;14.23;;;3.97;;
21878;SDS011;27908;42.708;23.278;2023-03-20T12:36:51;9.20;;;3.33;;
21878;SDS011;27908;42.708;23.278;2023-03-20T12:39:24;11.73;;;3.20;;
21878;SDS011;27908;42.708;23.278;2023-03-20T12:47:27;8.52;;;3.00;;
21878;SDS011;27908;42.708;23.278;2023-03-20T13:07:16;9.15;;;2.80;;
21878;SDS011;27908;42.708;23.278;2023-03-20T13:17:42;10.27;;;3.40;;
21878;SDS011;27908;42.708;23.278;2023-03-20T13:20:31;7.85;;;3.08;;
21878;SDS011;27908;42.708;23.278;2023-03-20T13:28:54;9.20;;;3.67;;
21878;SDS011;27908;42.708;23.278;2023-03-20T13:39:32;10.35;;;3.92;;
21878;SDS011;27908;42.708;23.278;2023-03-20T13:42:01;11.82;;;6.07;;
21878;SDS011;27908;42.708;23.278;2023-03-20T13:44:32;8.10;;;3.40;;
21878;SDS011;27908;42.708;23.278;2023-03-20T13:47:05;8.35;;;3.50;;
21878;SDS011;27908;42.708;23.278;2023-03-20T13:49:38;8.18;;;3.60;;
21878;SDS011;27908;42.708;23.278;2023-03-20T13:52:14;10.27;;;4.07;;
21878;SDS011;27908;42.708;23.278;2023-03-20T14:00:25;9.05;;;3.70;;
21878;SDS011;27908;42.708;23.278;2023-03-20T14:03:04;10.48;;;4.10;;
21878;SDS011;27908;42.708;23.278;2023-03-20T14:05:37;8.15;;;3.60;;
21878;SDS011;27908;42.708;23.278;2023-03-20T14:13:55;9.23;;;3.60;;
21878;SDS011;27908;42.708;23.278;2023-03-20T14:16:42;8.82;;;3.55;;
21878;SDS011;27908;42.708;23.278;2023-03-20T14:19:15;8.88;;;3.45;;
21878;SDS011;27908;42.708;23.278;2023-03-20T14:21:46;8.52;;;3.45;;
21878;SDS011;27908;42.708;23.278;2023-03-20T14:24:16;9.13;;;3.40;;
21878;SDS011;27908;42.708;23.278;2023-03-20T14:26:47;8.88;;;3.50;;
21878;SDS011;27908;42.708;23.278;2023-03-20T14:31:40;10.47;;;3.67;;
21878;SDS011;27908;42.708;23.278;2023-03-20T14:50:19;10.30;;;3.50;;
21878;SDS011;27908;42.708;23.278;2023-03-20T14:57:54;10.05;;;3.00;;
21878;SDS011;27908;42.708;23.278;2023-03-20T15:02:49;8.75;;;3.00;;
21878;SDS011;27908;42.708;23.278;2023-03-20T15:05:21;8.55;;;3.75;;
21878;SDS011;27908;42.708;23.278;2023-03-20T15:07:49;7.20;;;2.80;;
21878;SDS011;27908;42.708;23.278;2023-03-20T15:10:16;25.40;;;3.97;;
21878;SDS011;27908;42.708;23.278;2023-03-20T15:12:42;33.27;;;3.93;;
21878;SDS011;27908;42.708;23.278;2023-03-20T15:15:22;11.73;;;3.15;;
21878;SDS011;27908;42.708;23.278;2023-03-20T15:17:52;9.88;;;3.33;;
21878;SDS011;27908;42.708;23.278;2023-03-20T15:22:48;9.63;;;3.25;;
21878;SDS011;27908;42.708;23.278;2023-03-20T15:25:17;8.60;;;3.78;;
21878;SDS011;27908;42.708;23.278;2023-03-20T15:27:44;11.40;;;5.60;;
21878;SDS011;27908;42.708;23.278;2023-03-20T15:30:12;16.60;;;9.20;;
21878;SDS011;27908;42.708;23.278;2023-03-20T15:32:41;14.73;;;7.00;;
21878;SDS011;27908;42.708;23.278;2023-03-20T15:35:11;19.88;;;5.72;;
21878;SDS011;27908;42.708;23.278;2023-03-20T15:37:41;39.45;;;7.22;;
21878;SDS011;27908;42.708;23.278;2023-03-20T15:40:12;21.47;;;4.93;;
21878;SDS011;27908;42.708;23.278;2023-03-20T15:43:09;20.42;;;3.95;;
21878;SDS011;27908;42.708;23.278;2023-03-20T15:45:35;13.55;;;4.20;;
21878;SDS011;27908;42.708;23.278;2023-03-20T15:48:04;10.35;;;3.90;;
21878;SDS011;27908;42.708;23.278;2023-03-20T15:50:34;13.48;;;3.80;;
21878;SDS011;27908;42.708;23.278;2023-03-20T15:53:03;13.90;;;4.40;;
21878;SDS011;27908;42.708;23.278;2023-03-20T15:55:30;12.45;;;4.00;;
21878;SDS011;27908;42.708;23.278;2023-03-20T15:57:56;23.80;;;4.55;;
21878;SDS011;27908;42.708;23.278;2023-03-20T16:00:26;13.60;;;4.95;;
21878;SDS011;27908;42.708;23.278;2023-03-20T16:03:07;34.90;;;11.50;;
21878;SDS011;27908;42.708;23.278;2023-03-20T16:05:35;24.40;;;8.97;;
21878;SDS011;27908;42.708;23.278;2023-03-20T16:08:11;38.17;;;17.08;;
21878;SDS011;27908;42.708;23.278;2023-03-20T16:10:40;14.05;;;5.03;;
21878;SDS011;27908;42.708;23.278;2023-03-20T16:13:09;47.80;;;23.35;;
21878;SDS011;27908;42.708;23.278;2023-03-20T16:15:42;24.80;;;11.17;;
21878;SDS011;27908;42.708;23.278;2023-03-20T16:18:09;26.52;;;11.75;;
21878;SDS011;27908;42.708;23.278;2023-03-20T16:20:39;15.02;;;5.85;;
21878;SDS011;27908;42.708;23.278;2023-03-20T16:23:13;15.68;;;6.85;;
21878;SDS011;27908;42.708;23.278;2023-03-20T16:25:52;119.45;;;57.92;;
21878;SDS011;27908;42.708;23.278;2023-03-20T16:28:23;29.53;;;13.07;;
21878;SDS011;27908;42.708;23.278;2023-03-20T16:30:53;28.58;;;13.13;;
21878;SDS011;27908;42.708;23.278;2023-03-20T16:33:28;28.77;;;12.30;;
21878;SDS011;27908;42.708;23.278;2023-03-20T16:35:54;26.85;;;9.07;;
21878;SDS011;27908;42.708;23.278;2023-03-20T16:38:24;74.60;;;35.97;;
21878;SDS011;27908;42.708;23.278;2023-03-20T16:40:55;136.45;;;69.50;;
21878;SDS011;27908;42.708;23.278;2023-03-20T16:43:38;143.85;;;67.97;;
21878;SDS011;27908;42.708;23.278;2023-03-20T16:46:04;184.67;;;85.80;;
21878;SDS011;27908;42.708;23.278;2023-03-20T16:51:15;199.43;;;97.63;;
21878;SDS011;27908;42.708;23.278;2023-03-20T16:53:46;300.42;;;152.07;;
21878;SDS011;27908;42.708;23.278;2023-03-20T16:56:16;111.57;;;54.67;;
21878;SDS011;27908;42.708;23.278;2023-03-20T16:58:48;102.70;;;46.63;;
21878;SDS011;27908;42.708;23.278;2023-03-20T17:01:16;47.60;;;23.10;;
21878;SDS011;27908;42.708;23.278;2023-03-20T17:03:46;53.00;;;20.58;;
21878;SDS011;27908;42.708;23.278;2023-03-20T17:08:45;28.80;;;12.00;;
21878;SDS011;27908;42.708;23.278;2023-03-20T17:11:16;72.15;;;31.58;;
21878;SDS011;27908;42.708;23.278;2023-03-20T17:13:47;37.38;;;15.10;;
21878;SDS011;27908;42.708;23.278;2023-03-20T17:16:14;38.27;;;15.70;;
21878;SDS011;27908;42.708;23.278;2023-03-20T17:18:43;36.22;;;16.30;;
21878;SDS011;27908;42.708;23.278;2023-03-20T17:21:10;51.35;;;23.23;;
21878;SDS011;27908;42.708;23.278;2023-03-20T17:23:35;32.83;;;14.87;;
21878;SDS011;27908;42.708;23.278;2023-03-20T17:26:01;71.10;;;28.33;;
21878;SDS011;27908;42.708;23.278;2023-03-20T17:28:27;41.30;;;21.15;;
21878;SDS011;27908;42.708;23.278;2023-03-20T17:30:57;33.00;;;15.97;;
21878;SDS011;27908;42.708;23.278;2023-03-20T17:33:25;40.03;;;15.10;;
21878;SDS011;27908;42.708;23.278;2023-03-20T17:35:52;37.78;;;15.75;;